Time;durP1;ratioP1;P1;durP2;ratioP2;P2;SDS_P1;SDS_P2;PMS_P1;PMS_P2;Temp;Humidity;BMP_temperature;BMP_pressure;BME280_temperature;BME280_humidity;BME280_pressure;Samples;Min_cycle;Max_cycle;Signal;HPM_P1;HPM_P2
2022/10/02 00:00:10;;;;;;;25.48;4.95;;;;;;;14.34;82.06;101179.31;3575477;40;20064;-62
2022/10/02 00:03:01;;;;;;;21.77;4.10;;;;;;;14.37;81.96;101183.66;3581189;40;20060;-62
2022/10/02 00:05:36;;;;;;;22.95;4.70;;;;;;;14.39;82.12;101181.69;3580684;40;20048;-63
2022/10/02 00:08:15;;;;;;;25.25;4.68;;;;;;;14.35;82.25;101180.19;3580597;40;20056;-62
2022/10/02 00:10:53;;;;;;;21.20;4.53;;;;;;;13.78;82.10;101077.97;3580023;40;20187;-63
2022/10/02 00:13:33;;;;;;;20.77;4.78;;;;;;;14.44;81.77;101190.34;3579623;40;20060;-62
2022/10/02 00:16:04;;;;;;;22.70;4.32;;;;;;;14.46;82.32;101193.81;3580784;40;20062;-62
2022/10/02 00:18:36;;;;;;;17.63;4.00;;;;;;;14.45;82.58;101196.59;3579148;40;20056;-62
2022/10/02 00:21:17;;;;;;;18.53;4.60;;;;;;;14.49;82.52;101201.69;3587284;40;20085;-63
2022/10/02 00:23:53;;;;;;;20.13;4.68;;;;;;;14.51;82.27;101210.59;3586524;40;20756;-62
2022/10/02 00:26:48;;;;;;;25.90;5.65;;;;;;;14.45;82.46;101197.47;3579647;40;20296;-62
2022/10/02 00:29:34;;;;;;;24.27;5.10;;;;;;;14.53;82.37;101208.66;3580032;40;20143;-63
2022/10/02 00:32:08;;;;;;;24.15;5.38;;;;;;;14.53;82.54;101214.06;3580484;40;20059;-62
2022/10/02 00:34:55;;;;;;;22.55;4.88;;;;;;;14.52;82.24;101206.91;3579381;40;20138;-62
2022/10/02 00:38:06;;;;;;;22.10;4.63;;;;;;;14.51;82.28;101212.44;3579435;40;20378;-63
2022/10/02 00:40:57;;;;;;;22.17;4.50;;;;;;;14.50;82.44;101227.78;3579681;40;20440;-62
2022/10/02 00:43:46;;;;;;;29.15;4.85;;;;;;;14.50;82.88;101224.22;3562602;40;20384;-62
2022/10/02 00:46:40;;;;;;;25.63;4.93;;;;;;;14.49;82.81;101214.34;3579381;40;20129;-62
2022/10/02 00:49:28;;;;;;;;;;;;;;;14.41;82.83;101201.38;3579746;40;20036;-62
2022/10/02 00:52:17;;;;;;;23.00;4.75;;;;;;;14.48;83.25;101218.88;3580633;40;19942;-62
2022/10/02 00:55:17;;;;;;;21.10;4.47;;;;;;;14.46;82.73;101218.16;3579384;40;20682;-62
2022/10/02 00:58:11;;;;;;;22.35;4.82;;;;;;;14.48;82.85;101221.59;3579331;40;20383;-62
2022/10/02 01:00:40;;;;;;;22.88;4.97;;;;;;;14.36;83.06;101187.31;3579052;40;20068;-62
2022/10/02 01:03:35;;;;;;;25.70;4.32;;;;;;;14.36;83.09;101190.00;3579225;40;20381;-62
2022/10/02 01:06:01;;;;;;;25.80;5.00;;;;;;;14.39;83.34;101206.88;3577743;40;20068;-62
2022/10/02 01:08:27;;;;;;;19.83;4.47;;;;;;;14.49;83.14;101220.59;3577141;40;20083;-62
2022/10/02 01:10:53;;;;;;;20.50;4.45;;;;;;;13.97;83.54;101132.41;3577419;40;21131;-62
2022/10/02 01:13:19;;;;;;;24.45;5.13;;;;;;;14.52;83.35;101225.84;3580378;40;20373;-62
2022/10/02 01:15:55;;;;;;;28.88;4.90;;;;;;;13.55;83.46;101066.94;3578956;40;20065;-62
2022/10/02 01:18:21;;;;;;;22.90;4.40;;;;;;;14.56;83.44;101226.50;3579927;40;20066;-62
2022/10/02 01:21:04;;;;;;;25.77;5.25;;;;;;;14.56;83.53;101221.94;3580444;40;20056;-62
2022/10/02 01:23:48;;;;;;;26.48;4.68;;;;;;;14.57;84.09;101218.25;3579633;40;20060;-62
2022/10/02 01:26:15;;;;;;;23.63;4.45;;;;;;;14.58;83.62;101211.88;3579546;40;20102;-63
2022/10/02 01:28:40;;;;;;;23.65;4.70;;;;;;;14.60;83.73;101212.63;3579296;40;20446;-62
2022/10/02 01:31:12;;;;;;;21.40;5.03;;;;;;;14.63;83.87;101209.69;3579360;40;20071;-62
2022/10/02 01:33:41;;;;;;;22.52;4.72;;;;;;;13.91;83.77;101086.91;3578965;40;20104;-62
2022/10/02 01:36:12;;;;;;;29.40;4.80;;;;;;;14.66;83.75;101210.47;3580208;40;20127;-62
2022/10/02 01:38:40;;;;;;;31.67;5.32;;;;;;;14.66;83.80;101210.47;3579919;40;20397;-63
2022/10/02 01:41:10;;;;;;;28.13;5.25;;;;;;;13.86;83.84;101079.16;3580403;40;20285;-62
2022/10/02 01:43:48;;;;;;;24.33;4.80;;;;;;;14.12;84.11;101117.81;3577843;40;20052;-62
2022/10/02 01:46:48;;;;;;;30.00;5.72;;;;;;;14.67;84.05;101212.19;3580003;40;20088;-62
2022/10/02 01:49:59;;;;;;;28.33;5.63;;;;;;;14.67;84.56;101218.47;3579225;40;20052;-62
2022/10/02 01:53:08;;;;;;;24.67;5.00;;;;;;;14.62;84.10;101218.81;3563765;40;20060;-62
2022/10/02 01:56:21;;;;;;;26.30;5.25;;;;;;;14.68;84.30;101225.59;3578016;40;20081;-63
2022/10/02 01:59:10;;;;;;;24.75;4.72;;;;;;;14.67;84.66;101217.59;3579284;40;20064;-63
2022/10/02 02:01:58;;;;;;;29.58;5.28;;;;;;;14.68;84.55;101214.75;3576893;40;20181;-62
2022/10/02 02:04:42;;;;;;;27.05;5.15;;;;;;;13.66;84.61;101040.03;3578956;40;20295;-62
2022/10/02 02:07:19;;;;;;;31.20;6.75;;;;;;;13.97;84.67;101083.78;3580219;40;20048;-62
2022/10/02 02:10:31;;;;;;;27.75;4.97;;;;;;;14.78;84.42;101214.94;3578690;40;20049;-62
2022/10/02 02:13:10;;;;;;;27.95;4.82;;;;;;;14.80;84.46;101210.31;3562317;40;20371;-62
2022/10/02 02:16:07;;;;;;;26.30;5.18;;;;;;;14.79;84.44;101222.97;3577901;40;20294;-62
2022/10/02 02:19:03;;;;;;;26.83;4.95;;;;;;;14.81;84.51;101217.44;3577693;40;20055;-62
2022/10/02 02:22:03;;;;;;;28.33;5.10;;;;;;;14.84;84.11;101225.34;3577059;40;20052;-62
2022/10/02 02:24:53;;;;;;;27.90;5.10;;;;;;;14.85;84.53;101238.78;3581461;40;20387;-62
2022/10/02 02:27:28;;;;;;;27.00;4.80;;;;;;;14.85;84.24;101227.09;3585751;40;20048;-62
2022/10/02 02:30:06;;;;;;;26.55;4.75;;;;;;;14.91;83.74;101229.34;3580601;40;20068;-62
2022/10/02 02:32:40;;;;;;;25.17;5.80;;;;;;;14.89;83.79;101216.91;3577927;40;20060;-62
2022/10/02 02:35:19;;;;;;;21.83;5.00;;;;;;;14.94;83.46;101234.53;3580058;40;20075;-62
2022/10/02 02:37:51;;;;;;;21.58;4.72;;;;;;;14.93;84.21;101238.19;3581123;40;20351;-60
2022/10/02 02:40:29;;;;;;;21.40;4.70;;;;;;;14.90;84.34;101230.28;3580421;40;20055;-67
2022/10/02 02:43:15;;;;;;;17.35;4.38;;;;;;;14.14;84.92;101105.06;3581317;40;20052;-68
2022/10/02 02:45:53;;;;;;;18.23;4.88;;;;;;;14.86;84.99;101223.38;3581575;40;20052;-69
2022/10/02 02:48:31;;;;;;;15.50;3.88;;;;;;;14.60;84.41;101190.13;3582191;40;20391;-67
2022/10/02 02:51:19;;;;;;;22.45;4.00;;;;;;;14.80;84.80;101223.84;3588791;40;20052;-66
2022/10/02 02:54:02;;;;;;;17.23;3.40;;;;;;;14.75;84.91;101226.91;3581401;40;20044;-66
2022/10/02 02:56:33;;;;;;;21.88;4.30;;;;;;;14.65;84.17;101220.41;3580531;40;20424;-65
2022/10/02 02:59:13;;;;;;;16.30;3.65;;;;;;;14.66;84.27;101234.81;3580845;40;20068;-65
2022/10/02 03:01:41;;;;;;;18.08;3.83;;;;;;;14.63;84.72;101239.47;3580640;40;20052;-65
2022/10/02 03:04:12;;;;;;;7.68;2.58;;;;;;;14.61;83.74;101230.59;3580773;40;20354;-65
2022/10/02 03:06:44;;;;;;;10.70;2.53;;;;;;;14.57;83.24;101234.50;3579997;40;20056;-65
2022/10/02 03:09:20;;;;;;;8.30;2.22;;;;;;;14.51;82.74;101232.22;3581297;40;20126;-65
2022/10/02 03:11:57;;;;;;;10.65;2.50;;;;;;;14.48;82.67;101234.25;3581252;40;20072;-64
2022/10/02 03:14:40;;;;;;;9.75;2.22;;;;;;;14.43;82.00;101231.91;3578404;40;21182;-64
2022/10/02 03:17:33;;;;;;;10.02;2.45;;;;;;;14.37;82.30;101232.34;3582468;40;20089;-64
2022/10/02 03:20:05;;;;;;;12.57;2.45;;;;;;;14.34;82.41;101238.81;3580744;40;20064;-65
2022/10/02 03:22:55;;;;;;;9.88;2.65;;;;;;;14.30;82.04;101236.44;3582025;40;20048;-64
2022/10/02 03:25:40;;;;;;;11.43;2.50;;;;;;;14.26;82.34;101237.63;3582784;40;20086;-64
2022/10/02 03:28:28;;;;;;;10.07;2.08;;;;;;;14.25;82.32;101241.31;3581027;40;20052;-64
2022/10/02 03:30:57;;;;;;;7.15;2.17;;;;;;;14.24;82.41;101242.28;3581088;40;20071;-64
2022/10/02 03:33:26;;;;;;;7.63;2.30;;;;;;;14.03;82.75;101202.25;3578946;40;20040;-63
2022/10/02 03:35:54;;;;;;;10.38;2.92;;;;;;;14.21;82.87;101228.97;3580892;40;20061;-63
2022/10/02 03:38:24;;;;;;;6.95;2.40;;;;;;;14.22;82.82;101239.69;3582840;40;20385;-63
2022/10/02 03:40:51;;;;;;;8.88;2.88;;;;;;;14.21;82.90;101237.06;3579534;40;20048;-63
2022/10/02 03:43:23;;;;;;;6.75;2.50;;;;;;;13.78;82.68;101176.09;3581974;40;20048;-64
2022/10/02 03:45:49;;;;;;;9.80;2.60;;;;;;;14.19;82.91;101244.44;3581286;40;20145;-64
2022/10/02 03:48:15;;;;;;;8.23;2.42;;;;;;;14.14;83.04;101232.13;3579741;40;20060;-64
2022/10/02 03:50:41;;;;;;;11.63;3.15;;;;;;;14.12;83.53;101244.88;3582511;40;20053;-64
2022/10/02 03:53:21;;;;;;;8.63;3.13;;;;;;;14.10;83.53;101260.31;3581700;40;20412;-63
2022/10/02 03:56:03;;;;;;;9.77;3.40;;;;;;;14.10;83.81;101264.88;3579609;40;20104;-63
2022/10/02 03:58:31;;;;;;;8.90;3.10;;;;;;;14.09;83.43;101268.56;3582438;40;20060;-63
2022/10/02 04:01:31;;;;;;;10.48;3.95;;;;;;;14.08;83.77;101254.19;3579418;40;20044;-63
2022/10/02 04:04:17;;;;;;;19.50;7.70;;;;;;;14.12;85.17;101257.53;3580175;40;20045;-63
2022/10/02 04:06:55;;;;;;;24.20;10.25;;;;;;;14.25;86.79;101239.47;3582599;40;20092;-63
2022/10/02 04:09:34;;;;;;;19.52;9.75;;;;;;;14.01;86.41;101200.63;3583603;40;20122;-63
2022/10/02 04:12:15;;;;;;;22.13;9.43;;;;;;;14.11;86.21;101216.13;3579597;40;20125;-63
2022/10/02 04:15:01;;;;;;;16.55;8.73;;;;;;;14.36;85.40;101247.66;3582177;40;20099;-63
2022/10/02 04:18:00;;;;;;;18.83;8.73;;;;;;;14.37;85.46;101253.97;3583324;40;20048;-63
2022/10/02 04:20:42;;;;;;;16.80;7.75;;;;;;;14.39;85.08;101252.00;3579389;40;20154;-63
2022/10/02 04:23:36;;;;;;;19.75;8.13;;;;;;;14.26;85.02;101226.81;3580457;40;20509;-64
2022/10/02 04:26:24;;;;;;;19.50;7.70;;;;;;;14.35;85.06;101250.50;3580133;40;20138;-64
2022/10/02 04:29:12;;;;;;;22.35;8.40;;;;;;;14.39;85.22;101257.41;3576217;40;20044;-64
2022/10/02 04:31:38;;;;;;;19.27;8.52;;;;;;;14.05;85.49;101188.63;3576241;40;20062;-65
2022/10/02 04:34:12;;;;;;;16.52;8.65;;;;;;;14.45;85.14;101256.97;3576610;40;20060;-65
2022/10/02 04:37:25;;;;;;;16.30;8.10;;;;;;;14.47;85.57;101249.63;3581955;40;20048;-63
2022/10/02 04:40:35;;;;;;;19.10;8.23;;;;;;;14.48;86.10;101256.75;3576924;40;20060;-63
2022/10/02 04:43:39;;;;;;;16.42;8.50;;;;;;;14.52;86.52;101260.13;3579647;40;20294;-64
2022/10/02 04:46:39;;;;;;;17.35;9.75;;;;;;;14.53;86.33;101270.00;3580740;40;20375;-65
2022/10/02 04:49:55;;;;;;;21.00;10.95;;;;;;;14.55;86.87;101279.72;3580594;40;20316;-65
2022/10/02 04:52:53;;;;;;;21.08;11.68;;;;;;;14.59;86.65;101283.97;3581934;40;20292;-66
2022/10/02 04:55:56;;;;;;;24.00;12.63;;;;;;;14.60;86.88;101282.97;3580324;40;20048;-66
2022/10/02 04:59:06;;;;;;;24.73;13.55;;;;;;;14.56;87.68;101270.66;3581714;40;20638;-64
2022/10/02 05:02:07;;;;;;;29.98;14.70;;;;;;;14.60;88.37;101292.94;3583829;40;20059;-63
2022/10/02 05:04:35;;;;;;;31.83;16.88;;;;;;;14.63;88.73;101288.16;3581565;40;20048;-64
2022/10/02 05:07:19;;;;;;;28.23;15.18;;;;;;;14.66;89.16;101286.22;3577746;40;20383;-64
2022/10/02 05:10:15;;;;;;;34.97;17.20;;;;;;;14.61;88.54;101279.28;3581838;40;20126;-66
2022/10/02 05:13:24;;;;;;;31.80;15.73;;;;;;;14.68;88.79;101295.09;3580302;40;20048;-66
2022/10/02 05:16:36;;;;;;;32.70;17.75;;;;;;;14.67;89.12;101282.53;3582662;40;20154;-65
2022/10/02 05:19:56;;;;;;;30.10;17.77;;;;;;;14.67;89.01;101283.41;3581911;40;20064;-66
2022/10/02 05:22:43;;;;;;;38.72;19.30;;;;;;;14.69;89.10;101286.88;3581510;40;20055;-67
2022/10/02 05:25:31;;;;;;;36.50;19.27;;;;;;;14.70;89.08;101287.72;3581127;40;20157;-67
2022/10/02 05:28:29;;;;;;;35.08;18.40;;;;;;;14.67;89.01;101288.81;3577040;40;20048;-67
2022/10/02 05:31:50;;;;;;;38.90;18.70;;;;;;;14.70;88.91;101298.56;3577589;40;20060;-67
2022/10/02 05:34:53;;;;;;;40.28;17.65;;;;;;;14.69;88.90;101308.53;3542915;40;20058;-66
2022/10/02 05:37:51;;;;;;;31.40;15.93;;;;;;;14.70;89.12;101309.38;3579990;40;20050;-65
2022/10/02 05:40:25;;;;;;;34.75;14.43;;;;;;;14.72;89.22;101307.44;3581380;40;20056;-65
2022/10/02 05:43:22;;;;;;;32.97;14.73;;;;;;;14.65;89.68;101300.72;3594637;39;20048;-65
2022/10/02 05:45:55;;;;;;;27.63;14.13;;;;;;;14.75;89.62;101315.34;3582853;40;20049;-65
2022/10/02 05:49:01;;;;;;;32.72;13.07;;;;;;;14.75;89.90;101315.34;3579053;40;20052;-65
2022/10/02 05:52:04;;;;;;;28.02;11.95;;;;;;;14.74;89.82;101309.03;3583133;40;20062;-65
2022/10/02 05:54:53;;;;;;;35.15;11.00;;;;;;;14.08;89.09;101193.81;3582393;40;20126;-65
2022/10/02 05:58:19;;;;;;;22.20;9.07;;;;;;;14.76;89.54;101314.34;3581583;40;20338;-65
2022/10/02 06:01:16;;;;;;;24.40;8.95;;;;;;;14.73;90.03;101307.31;3578334;40;20059;-65
2022/10/02 06:03:47;;;;;;;29.80;9.10;;;;;;;14.59;90.40;101275.84;3578452;40;20126;-64
2022/10/02 06:06:47;;;;;;;28.65;8.45;;;;;;;14.81;90.16;101321.19;3576134;40;20048;-64
2022/10/02 06:09:24;;;;;;;28.25;8.70;;;;;;;14.21;89.84;101200.09;3579297;40;20084;-64
2022/10/02 06:12:15;;;;;;;28.40;8.48;;;;;;;14.84;89.96;101318.25;3580167;40;20052;-64
2022/10/02 06:14:59;;;;;;;25.95;7.85;;;;;;;14.88;89.64;101323.44;3579862;40;20052;-64
2022/10/02 06:18:01;;;;;;;29.38;7.45;;;;;;;14.87;89.61;101327.97;3579833;40;20129;-65
2022/10/02 06:20:39;;;;;;;27.38;7.07;;;;;;;14.88;90.27;101335.13;3579051;40;20053;-64
2022/10/02 06:23:19;;;;;;;24.08;7.28;;;;;;;14.90;90.24;101341.28;3578903;40;20794;-64
2022/10/02 06:25:57;;;;;;;28.90;7.55;;;;;;;14.92;89.76;101350.16;3579794;40;20048;-65
2022/10/02 06:28:51;;;;;;;22.52;6.28;;;;;;;14.84;89.80;101339.91;3579766;40;20126;-64
2022/10/02 06:31:44;;;;;;;;;;;;;;;14.93;89.72;101351.91;3577083;40;20374;-64
2022/10/02 06:34:13;;;;;;;26.67;7.40;;;;;;;14.94;90.29;101350.94;3583131;40;19936;-65
2022/10/02 06:36:59;;;;;;;20.58;6.25;;;;;;;14.95;90.05;101346.38;3575441;40;20056;-64
2022/10/02 06:39:38;;;;;;;24.00;6.75;;;;;;;14.97;89.83;101345.31;3573174;40;20057;-64
2022/10/02 06:42:44;;;;;;;23.48;6.65;;;;;;;14.82;90.39;101330.16;3580282;40;21324;-64
2022/10/02 06:45:48;;;;;;;28.02;7.25;;;;;;;15.01;90.10;101359.47;3583935;40;20052;-64
2022/10/02 06:48:47;;;;;;;23.88;7.35;;;;;;;15.03;90.16;101357.50;3576490;40;20383;-64
2022/10/02 06:51:49;;;;;;;26.98;7.18;;;;;;;15.06;89.86;101360.88;3574513;40;20089;-64
2022/10/02 06:54:49;;;;;;;21.33;6.70;;;;;;;15.08;89.80;101377.88;3580648;40;20126;-64
2022/10/02 06:57:47;;;;;;;19.98;7.45;;;;;;;15.09;89.16;101374.19;3578891;40;20064;-64
2022/10/02 07:00:18;;;;;;;23.75;7.35;;;;;;;15.11;88.92;101387.63;3578379;40;20060;-64
2022/10/02 07:03:35;;;;;;;22.27;8.10;;;;;;;15.13;89.23;101388.38;3579101;40;20170;-64
2022/10/02 07:06:34;;;;;;;18.52;7.47;;;;;;;15.18;88.74;101390.75;3580938;40;20052;-63
2022/10/02 07:09:11;;;;;;;22.67;8.27;;;;;;;15.19;88.90;101397.88;3583414;40;20157;-64
2022/10/02 07:12:23;;;;;;;23.05;8.90;;;;;;;15.18;88.57;101396.16;3589316;40;20081;-66
2022/10/02 07:15:50;;;;;;;18.67;8.85;;;;;;;15.15;89.31;101390.97;3578635;40;20367;-64
2022/10/02 07:18:59;;;;;;;22.90;9.48;;;;;;;15.14;88.98;101409.06;3578107;40;20056;-66
2022/10/02 07:22:02;;;;;;;22.80;9.27;;;;;;;15.15;89.42;101396.38;3579479;40;20056;-65
2022/10/02 07:25:01;;;;;;;20.27;9.55;;;;;;;15.15;88.64;101401.81;3580775;40;20336;-66
2022/10/02 07:27:54;;;;;;;24.05;9.40;;;;;;;14.59;88.28;101308.31;3581782;40;20044;-66
2022/10/02 07:30:20;;;;;;;17.27;8.93;;;;;;;15.19;88.63;101403.31;3579189;40;20387;-67
2022/10/02 07:33:06;;;;;;;17.67;9.25;;;;;;;15.17;88.20;101406.13;3581455;40;20055;-67
2022/10/02 07:35:39;;;;;;;20.10;9.68;;;;;;;15.21;88.39;101406.78;3582796;40;20063;-66
2022/10/02 07:38:41;;;;;;;17.00;8.60;;;;;;;15.23;88.38;101399.41;3580512;40;20060;-67
2022/10/02 07:41:41;;;;;;;20.52;9.20;;;;;;;15.24;88.70;101407.41;3587285;40;20387;-66
2022/10/02 07:44:45;;;;;;;19.95;9.13;;;;;;;15.26;88.30;101405.47;3585886;40;20155;-66
2022/10/02 07:47:44;;;;;;;19.73;9.02;;;;;;;15.25;88.17;101405.56;3575968;40;20059;-65
2022/10/02 07:50:51;;;;;;;15.98;8.23;;;;;;;15.27;87.95;101406.34;3575339;40;20130;-65
2022/10/02 07:53:50;;;;;;;13.48;8.23;;;;;;;15.36;87.92;101416.50;3580726;40;20052;-65
2022/10/02 07:56:20;;;;;;;16.50;8.73;;;;;;;15.41;87.98;101408.03;3578981;40;20153;-65
2022/10/02 07:58:56;;;;;;;16.50;8.93;;;;;;;15.48;88.17;101414.75;3580380;40;20303;-65
2022/10/02 08:01:35;;;;;;;17.60;8.70;;;;;;;15.56;88.50;101424.03;3582082;40;20063;-65
2022/10/02 08:04:12;;;;;;;16.48;8.68;;;;;;;15.62;87.95;101430.84;3577581;40;20114;-64
2022/10/02 08:06:40;;;;;;;17.17;8.30;;;;;;;15.68;87.55;101429.59;3580475;40;20307;-64
2022/10/02 08:09:26;;;;;;;18.90;9.68;;;;;;;15.64;87.53;101414.50;3580262;40;20432;-64
2022/10/02 08:12:08;;;;;;;20.00;9.02;;;;;;;14.67;87.12;101244.66;3583268;40;20324;-64
2022/10/02 08:14:44;;;;;;;20.73;10.32;;;;;;;15.85;87.18;101434.59;3581568;40;20059;-64
2022/10/02 08:17:35;;;;;;;17.23;10.48;;;;;;;15.94;86.33;101439.34;3583212;40;20131;-64
2022/10/02 08:20:14;;;;;;;18.98;9.98;;;;;;;15.94;86.29;101439.34;3578800;40;20298;-63
2022/10/02 08:22:46;;;;;;;17.92;10.13;;;;;;;15.66;86.37;101396.25;3581290;40;20399;-65
2022/10/02 08:25:25;;;;;;;22.50;11.20;;;;;;;16.08;86.37;101457.31;3580981;40;20049;-65
2022/10/02 08:28:21;;;;;;;18.40;11.07;;;;;;;16.10;85.42;101459.91;3578848;40;20368;-64
2022/10/02 08:30:47;;;;;;;19.15;11.20;;;;;;;16.09;85.81;101450.03;3579080;40;20074;-65
2022/10/02 08:33:21;;;;;;;17.65;10.43;;;;;;;16.19;85.70;101464.63;3580018;40;20350;-64
2022/10/02 08:36:29;;;;;;;17.48;9.52;;;;;;;16.22;85.70;101465.25;3575752;40;20052;-64
2022/10/02 08:39:18;;;;;;;17.55;9.55;;;;;;;16.25;85.20;101458.75;3570175;40;20395;-64
2022/10/02 08:42:22;;;;;;;20.42;9.35;;;;;;;16.27;85.06;101467.66;3578769;40;20064;-65
2022/10/02 08:45:09;;;;;;;21.65;8.65;;;;;;;16.23;84.76;101468.84;3576150;40;20048;-64
2022/10/02 08:48:04;;;;;;;18.27;8.40;;;;;;;16.35;84.31;101481.47;3581975;40;20331;-64
2022/10/02 08:50:56;;;;;;;16.48;7.40;;;;;;;16.36;83.92;101483.19;3581950;40;20052;-64
2022/10/02 08:54:14;;;;;;;14.85;7.60;;;;;;;16.40;83.88;101494.72;3582212;40;20100;-64
2022/10/02 08:56:57;;;;;;;22.08;8.77;;;;;;;16.50;84.68;101489.47;3579742;40;20135;-64
2022/10/02 08:59:24;;;;;;;14.07;7.10;;;;;;;16.57;83.63;101482.56;3576796;40;20137;-64
2022/10/02 09:02:26;;;;;;;13.68;6.88;;;;;;;16.63;82.93;101485.69;3586286;39;20048;-64
2022/10/02 09:05:52;;;;;;;16.73;6.55;;;;;;;16.69;82.44;101501.50;3577962;40;20063;-64
2022/10/02 09:09:11;;;;;;;11.23;5.78;;;;;;;16.69;82.91;101501.50;3547834;40;20057;-64
2022/10/02 09:12:19;;;;;;;11.10;6.18;;;;;;;16.62;82.71;101499.38;3539080;40;20061;-64
2022/10/02 09:15:07;;;;;;;13.60;6.28;;;;;;;16.69;81.88;101503.34;3576681;40;20055;-64
2022/10/02 09:18:22;;;;;;;17.75;6.13;;;;;;;16.75;82.32;101500.19;3580953;40;20091;-64
2022/10/02 09:21:17;;;;;;;18.88;6.97;;;;;;;16.78;82.67;101494.53;3579221;40;20048;-64
2022/10/02 09:24:23;;;;;;;17.95;6.65;;;;;;;16.92;81.34;101507.88;3585645;40;20068;-64
2022/10/02 09:27:26;;;;;;;15.75;5.72;;;;;;;16.97;80.81;101504.81;3580253;40;20256;-64
2022/10/02 09:30:20;;;;;;;13.77;5.50;;;;;;;17.05;80.96;101501.50;3578125;40;20160;-64
2022/10/02 09:33:07;;;;;;;16.88;6.50;;;;;;;17.17;81.65;101501.41;3578659;40;20125;-64
2022/10/02 09:36:26;;;;;;;16.10;5.55;;;;;;;17.30;81.58;101511.31;3580627;40;20129;-64
2022/10/02 09:39:36;;;;;;;12.80;5.00;;;;;;;17.21;78.56;101499.31;3577578;40;20356;-64
2022/10/02 09:42:23;;;;;;;11.43;4.40;;;;;;;17.31;79.09;101524.75;3575711;40;20048;-64
2022/10/02 09:45:50;;;;;;;20.25;5.47;;;;;;;17.38;79.69;101525.16;3578477;40;20048;-64
2022/10/02 09:48:43;;;;;;;13.85;4.97;;;;;;;17.57;78.65;101524.53;3577838;40;20063;-64
2022/10/02 09:51:18;;;;;;;16.02;4.60;;;;;;;17.61;77.54;101523.31;3577389;40;20062;-64
2022/10/02 09:53:58;;;;;;;13.85;4.30;;;;;;;17.63;76.83;101526.75;3575670;40;20059;-64
2022/10/02 09:57:05;;;;;;;18.42;4.72;;;;;;;17.58;75.39;101529.00;3576005;40;20404;-64
2022/10/02 10:00:11;;;;;;;14.50;4.30;;;;;;;17.58;77.54;101535.28;3575871;40;20045;-64
2022/10/02 10:03:35;;;;;;;21.40;8.35;;;;;;;17.59;76.85;101536.16;3574003;40;20417;-63
2022/10/02 10:07:02;;;;;;;16.17;4.57;;;;;;;17.88;76.12;101536.53;3583403;40;20067;-63
2022/10/02 10:09:49;;;;;;;11.57;4.22;;;;;;;18.07;74.99;101539.50;3580818;40;20123;-63
2022/10/02 10:12:34;;;;;;;12.35;4.43;;;;;;;18.07;75.12;101534.03;3572359;40;20044;-64
2022/10/02 10:15:16;;;;;;;15.75;4.93;;;;;;;18.27;74.78;101543.31;3581468;40;20084;-64
2022/10/02 10:17:54;;;;;;;15.55;4.40;;;;;;;18.56;74.32;101537.28;3576786;40;20049;-64
2022/10/02 10:20:52;;;;;;;13.35;4.03;;;;;;;18.73;70.82;101542.19;3578991;40;20048;-64
2022/10/02 10:23:50;;;;;;;14.10;3.65;;;;;;;18.81;71.05;101555.16;3578668;40;20052;-64
2022/10/02 10:27:10;;;;;;;18.60;4.50;;;;;;;18.78;70.51;101556.28;3573859;40;20064;-64
2022/10/02 10:30:10;;;;;;;20.48;4.50;;;;;;;18.06;69.39;101461.59;3575211;40;20060;-64
2022/10/02 10:33:09;;;;;;;24.35;8.82;;;;;;;18.64;69.69;101570.16;3579624;40;20268;-64
2022/10/02 10:38:31;;;;;;;16.40;4.80;;;;;;;18.46;69.68;101571.72;3577846;40;20130;-63
2022/10/02 10:40:14;;;;;;;15.93;4.63;;;;;;;18.27;69.11;101591.44;3574388;40;20057;-65
2022/10/02 10:43:33;;;;;;;16.13;4.60;;;;;;;18.17;71.55;101599.47;3583142;40;20339;-66
2022/10/02 10:46:15;;;;;;;14.63;3.80;;;;;;;18.05;70.93;101584.16;3579771;40;20063;-65
2022/10/02 10:49:24;;;;;;;14.55;3.58;;;;;;;18.17;70.51;101598.59;3578864;40;20087;-64
2022/10/02 10:52:37;;;;;;;13.88;3.92;;;;;;;18.27;70.34;101605.91;3575016;40;20063;-65
2022/10/02 10:55:28;;;;;;;16.50;3.90;;;;;;;18.31;70.59;101599.22;3575011;40;20128;-64
2022/10/02 10:58:51;;;;;;;11.70;3.78;;;;;;;18.35;70.55;101598.97;3576130;40;20052;-64
2022/10/02 11:01:41;;;;;;;17.05;4.35;;;;;;;18.31;70.59;101585.59;3568875;40;20084;-65
2022/10/02 11:04:41;;;;;;;17.40;3.60;;;;;;;18.43;70.13;101591.91;3575657;40;20119;-66
2022/10/02 11:08:01;;;;;;;12.18;3.75;;;;;;;18.31;70.26;101562.97;3579606;40;20134;-65
2022/10/02 11:10:54;;;;;;;21.48;4.07;;;;;;;18.48;71.19;101580.63;3576014;40;20048;-65
2022/10/02 11:14:13;;;;;;;18.00;5.70;;;;;;;18.50;68.97;101589.53;3575180;40;20065;-64
2022/10/02 11:17:33;;;;;;;16.17;3.72;;;;;;;18.52;69.06;101587.53;3576427;40;20059;-65
2022/10/02 11:20:20;;;;;;;17.63;4.05;;;;;;;18.55;69.33;101590.88;3577447;40;20067;-65
2022/10/02 11:23:21;;;;;;;11.93;4.15;;;;;;;18.61;69.54;101591.34;3577174;40;20118;-65
2022/10/02 11:26:17;;;;;;;12.10;3.42;;;;;;;18.69;69.10;101589.72;3579921;40;20092;-65
2022/10/02 11:29:03;;;;;;;16.23;4.32;;;;;;;18.71;67.81;101598.63;3578219;40;20379;-63
2022/10/02 11:31:52;;;;;;;21.40;4.10;;;;;;;18.68;67.67;101609.78;3579069;40;20078;-66
2022/10/02 11:35:05;;;;;;;12.15;3.92;;;;;;;18.62;66.84;101612.16;3575878;40;20053;-66
2022/10/02 11:37:42;;;;;;;10.13;3.25;;;;;;;18.54;68.58;101619.09;3574058;40;20052;-66
2022/10/02 11:40:33;;;;;;;14.73;3.45;;;;;;;18.48;68.08;101608.69;3575829;40;20083;-66
2022/10/02 11:43:38;;;;;;;13.32;3.90;;;;;;;18.45;67.88;101613.53;3584734;40;20056;-64
2022/10/02 11:46:43;;;;;;;12.98;3.65;;;;;;;18.41;68.45;101617.50;3572771;40;20041;-66
2022/10/02 11:49:39;;;;;;;9.65;4.00;;;;;;;18.38;68.51;101615.91;3574938;40;20057;-64
2022/10/02 11:52:18;;;;;;;14.60;4.57;;;;;;;18.56;68.86;101616.25;3575456;40;20431;-64
2022/10/02 11:54:58;;;;;;;9.77;3.30;;;;;;;18.92;67.46;101612.31;3574686;40;20373;-65
2022/10/02 11:57:53;;;;;;;14.55;3.78;;;;;;;19.23;67.14;101607.00;3578293;40;20056;-65
2022/10/02 12:01:07;;;;;;;13.10;4.03;;;;;;;19.51;65.38;101604.59;3582570;40;20059;-65
2022/10/02 12:04:39;;;;;;;13.02;3.90;;;;;;;19.46;64.85;101616.75;3574900;40;20056;-65
2022/10/02 12:07:37;;;;;;;16.25;5.40;;;;;;;19.21;65.25;101615.28;3570798;40;20066;-64
2022/10/02 12:10:44;;;;;;;15.13;4.60;;;;;;;18.92;66.95;101614.19;3576791;40;20130;-66
2022/10/02 12:13:48;;;;;;;17.58;5.53;;;;;;;18.53;70.40;101627.41;3560888;40;20052;-67
2022/10/02 12:16:54;;;;;;;11.40;4.07;;;;;;;18.09;71.16;101632.75;3576665;40;20053;-65
2022/10/02 12:29:51;;;;;;;14.80;5.70;;;;;;;16.89;77.63;101635.75;3579664;40;20410;-65
2022/10/02 12:32:37;;;;;;;19.33;6.70;;;;;;;16.81;79.27;101640.94;3575166;40;20049;-66
2022/10/02 12:35:54;;;;;;;11.98;5.18;;;;;;;16.78;80.66;101640.25;3581486;40;20149;-65
2022/10/02 12:38:39;;;;;;;12.55;5.85;;;;;;;16.79;81.60;101642.88;3563893;40;20471;-65
2022/10/02 12:41:19;;;;;;;15.50;6.78;;;;;;;16.99;81.91;101648.66;3579956;40;20051;-65
2022/10/02 12:44:24;;;;;;;15.98;6.03;;;;;;;17.29;81.22;101631.88;3581588;40;20055;-65
2022/10/02 12:47:11;;;;;;;15.15;5.20;;;;;;;17.79;80.30;101632.47;3579995;40;20069;-65
2022/10/02 12:50:16;;;;;;;15.95;4.68;;;;;;;17.79;76.72;101537.28;3578470;40;20083;-64
2022/10/02 12:53:43;;;;;;;16.30;5.50;;;;;;;19.03;74.08;101641.41;3578947;40;20060;-64
2022/10/02 12:56:44;;;;;;;15.48;5.45;;;;;;;18.76;73.40;101541.94;3578258;40;20045;-65
2022/10/02 12:59:54;;;;;;;14.25;4.57;;;;;;;19.22;71.32;101635.25;3580867;40;20126;-65
2022/10/02 13:03:04;;;;;;;15.77;5.13;;;;;;;18.96;71.09;101643.75;3580344;40;20058;-65
2022/10/02 13:06:30;;;;;;;15.00;5.05;;;;;;;18.81;72.45;101641.44;3578702;40;20082;-65
2022/10/02 13:09:29;;;;;;;12.48;3.67;;;;;;;18.59;71.60;101658.72;3575570;40;20061;-64
2022/10/02 13:12:19;;;;;;;11.30;4.55;;;;;;;18.70;72.68;101651.34;3576067;40;20060;-64
2022/10/02 13:15:17;;;;;;;14.13;3.60;;;;;;;18.62;72.43;101651.16;3576541;40;20068;-66